createdAt,value
2022-10-22T00:02:59.330Z,100594.16
2022-10-22T00:06:08.111Z,100597.38
2022-10-22T00:09:16.346Z,100582.38
2022-10-22T00:12:31.842Z,100581.38
2022-10-22T00:15:40.303Z,100583.03
2022-10-22T00:18:48.969Z,100591.97
2022-10-22T00:21:57.262Z,100594.84
2022-10-22T00:25:12.273Z,100591.97
2022-10-22T00:28:20.313Z,100591.66
2022-10-22T00:31:35.315Z,100578.00
2022-10-22T00:34:50.323Z,100586.28
2022-10-22T00:37:58.354Z,100574.47
2022-10-22T00:41:14.314Z,100573.28
2022-10-22T00:44:36.084Z,100567.06
2022-10-22T00:48:15.291Z,100571.59
2022-10-22T00:51:17.388Z,100566.72
2022-10-22T00:54:32.315Z,100558.47
2022-10-22T00:57:48.311Z,100561.81
2022-10-22T01:00:56.408Z,100544.97
2022-10-22T01:04:05.071Z,100554.91
2022-10-22T01:07:13.305Z,100565.97
2022-10-22T01:10:51.303Z,100569.69
2022-10-22T01:14:08.595Z,100568.84
2022-10-22T01:17:41.810Z,100565.84
2022-10-22T01:21:08.114Z,100564.66
2022-10-22T01:24:30.331Z,100569.03
2022-10-22T01:28:01.314Z,100577.62
2022-10-22T01:31:20.393Z,100565.13
2022-10-22T01:34:23.738Z,100568.81
2022-10-22T01:37:43.593Z,100573.06
2022-10-22T01:40:47.440Z,100569.34
2022-10-22T01:44:02.324Z,100571.53
2022-10-22T01:47:16.241Z,100562.59
2022-10-22T01:50:53.347Z,100562.94
2022-10-22T01:54:25.371Z,100546.94
2022-10-22T01:57:43.409Z,100552.00
2022-10-22T02:01:10.367Z,100533.44
2022-10-22T02:04:32.227Z,100543.69
2022-10-22T02:07:46.344Z,100542.47
2022-10-22T02:11:09.330Z,100545.56
2022-10-22T02:14:19.851Z,100541.84
2022-10-22T02:17:29.332Z,100538.13
2022-10-22T02:20:48.390Z,100546.69
2022-10-22T02:23:57.271Z,100540.44
2022-10-22T02:27:16.343Z,100553.22
2022-10-22T02:30:25.833Z,100554.91
2022-10-22T02:33:38.368Z,100552.22
2022-10-22T02:36:50.357Z,100548.16
2022-10-22T02:40:00.318Z,100546.47
2022-10-22T02:43:08.967Z,100547.50
2022-10-22T02:46:18.383Z,100539.56
2022-10-22T02:49:33.352Z,100541.91
2022-10-22T02:52:41.746Z,100549.09
2022-10-22T02:55:50.011Z,100553.97
2022-10-22T02:58:58.364Z,100570.38
2022-10-22T03:02:14.369Z,100565.13
2022-10-22T03:05:16.139Z,100553.88
2022-10-22T03:08:30.393Z,100570.22
2022-10-22T03:11:38.644Z,100560.59
2022-10-22T03:14:53.387Z,100564.75
2022-10-22T03:17:55.235Z,100573.19
2022-10-22T03:21:28.382Z,100562.19
2022-10-22T03:24:42.386Z,100550.56
2022-10-22T03:28:00.388Z,100548.87
2022-10-22T03:31:02.202Z,100544.97
2022-10-22T03:34:17.383Z,100552.03
2022-10-22T03:37:19.740Z,100534.41
2022-10-22T03:40:34.412Z,100526.00
2022-10-22T03:43:37.819Z,100503.44
2022-10-22T03:46:52.422Z,100512.47
2022-10-22T03:49:54.220Z,100501.72
2022-10-22T03:53:10.399Z,100495.13
2022-10-22T03:56:12.801Z,100505.00
2022-10-22T03:59:27.411Z,100509.53
2022-10-22T04:02:35.379Z,100519.13
2022-10-22T04:05:43.991Z,100520.53
2022-10-22T04:08:52.522Z,100539.06
2022-10-22T04:12:08.044Z,100547.34
2022-10-22T04:15:23.381Z,100534.41
2022-10-22T04:18:31.978Z,100538.09
2022-10-22T04:21:41.423Z,100518.41
2022-10-22T04:24:56.412Z,100519.41
2022-10-22T04:27:58.168Z,100532.03
2022-10-22T04:31:29.478Z,100532.16
2022-10-22T04:34:31.211Z,100534.19
2022-10-22T04:37:46.416Z,100525.94
2022-10-22T04:40:55.066Z,100528.13
2022-10-22T04:44:04.385Z,100522.22
2022-10-22T04:47:12.937Z,100517.12
2022-10-22T04:50:21.433Z,100519.31
2022-10-22T04:53:30.115Z,100530.22
2022-10-22T04:56:39.398Z,100517.09
2022-10-22T04:59:54.474Z,100503.62
2022-10-22T05:02:56.235Z,100510.31
2022-10-22T05:09:24.941Z,100516.25
2022-10-22T05:12:46.453Z,100521.41
2022-10-22T05:15:48.227Z,100525.13
2022-10-22T05:19:06.435Z,100522.94
2022-10-22T05:22:14.460Z,100522.41
2022-10-22T05:25:23.085Z,100518.03
2022-10-22T05:28:38.429Z,100522.19
2022-10-22T05:31:53.434Z,100528.09
2022-10-22T05:35:01.447Z,100523.09
2022-10-22T05:38:13.035Z,100532.69
2022-10-22T05:41:25.457Z,100544.63
2022-10-22T05:44:40.436Z,100532.41
2022-10-22T05:47:48.995Z,100522.16
2022-10-22T05:51:03.668Z,100523.84
2022-10-22T05:54:18.581Z,100530.59
2022-10-22T05:57:27.492Z,100535.34
2022-10-22T06:00:42.468Z,100534.84
2022-10-22T06:03:54.155Z,100543.44
2022-10-22T06:07:02.484Z,100551.50
2022-10-22T06:10:27.533Z,100548.66
2022-10-22T06:13:42.500Z,100561.97
2022-10-22T06:16:58.453Z,100557.06
2022-10-22T06:20:00.346Z,100569.69
2022-10-22T06:23:15.530Z,100575.97
2022-10-22T06:26:23.483Z,100563.63
2022-10-22T06:29:31.991Z,100558.41
2022-10-22T06:32:46.454Z,100564.88
2022-10-22T06:36:05.296Z,100563.88
2022-10-22T06:39:17.624Z,100566.28
2022-10-22T06:42:25.494Z,100575.44
2022-10-22T06:45:40.560Z,100575.53
2022-10-22T06:48:58.499Z,100573.50
2022-10-22T06:52:00.388Z,100593.03
2022-10-22T06:55:16.490Z,100599.16
2022-10-22T06:58:18.309Z,100589.66
2022-10-22T07:01:39.560Z,100582.28
2022-10-22T07:04:47.492Z,100577.62
2022-10-22T07:07:56.090Z,100571.25
2022-10-22T07:11:12.459Z,100572.75
2022-10-22T07:14:22.171Z,100566.37
2022-10-22T07:17:30.607Z,100581.75
2022-10-22T07:20:39.071Z,100574.62
2022-10-22T07:23:53.526Z,100581.19
2022-10-22T07:26:55.375Z,100562.59
2022-10-22T07:30:11.514Z,100575.91
2022-10-22T07:33:20.448Z,100572.69
2022-10-22T07:36:29.158Z,100565.28
2022-10-22T07:39:37.520Z,100568.59
2022-10-22T07:42:52.493Z,100563.00
2022-10-22T07:46:01.180Z,100572.22
2022-10-22T07:49:15.508Z,100561.97
2022-10-22T07:52:23.488Z,100560.47
2022-10-22T07:55:32.867Z,100571.66
2022-10-22T07:58:41.494Z,100564.06
2022-10-22T08:02:03.587Z,100569.13
2022-10-22T08:05:18.487Z,100588.56
2022-10-22T08:08:30.455Z,100582.50
2022-10-22T08:11:39.504Z,100567.19
2022-10-22T08:14:54.574Z,100570.88
2022-10-22T08:18:03.095Z,100576.81
2022-10-22T08:21:11.578Z,100574.91
2022-10-22T08:24:20.244Z,100561.88
2022-10-22T08:27:28.570Z,100569.78
2022-10-22T08:30:37.647Z,100573.53
2022-10-22T08:33:46.530Z,100567.09
2022-10-22T08:36:55.605Z,100570.19
2022-10-22T08:40:04.536Z,100574.09
2022-10-22T08:43:47.494Z,100579.56
2022-10-22T08:47:22.763Z,100582.09
2022-10-22T08:50:50.583Z,100579.53
2022-10-22T08:54:20.533Z,100580.53
2022-10-22T08:57:55.521Z,100584.66
2022-10-22T09:01:11.691Z,100582.00
2022-10-22T09:04:33.598Z,100580.44
2022-10-22T09:07:50.526Z,100579.94
2022-10-22T09:11:26.609Z,100571.06
2022-10-22T09:14:35.111Z,100583.28
2022-10-22T09:18:12.576Z,100584.78
2022-10-22T09:21:45.547Z,100590.69
2022-10-22T09:24:59.552Z,100586.66
2022-10-22T09:28:09.899Z,100574.69
2022-10-22T09:31:20.570Z,100574.19
2022-10-22T09:34:29.820Z,100573.09
2022-10-22T09:37:55.599Z,100578.59
2022-10-22T09:40:59.934Z,100587.34
2022-10-22T09:44:14.579Z,100593.22
2022-10-22T09:48:02.470Z,100597.06
2022-10-22T09:51:26.616Z,100589.59
2022-10-22T09:54:40.134Z,100588.50
2022-10-22T09:58:04.584Z,100572.72
2022-10-22T10:01:06.324Z,100566.59
2022-10-22T10:04:22.626Z,100578.84
2022-10-22T10:07:26.923Z,100577.81
2022-10-22T10:11:00.611Z,100573.47
2022-10-22T10:14:24.600Z,100569.81
2022-10-22T10:18:07.620Z,100562.75
2022-10-22T10:21:30.760Z,100563.72
2022-10-22T10:25:05.621Z,100549.81
2022-10-22T10:28:31.141Z,100555.66
2022-10-22T10:31:53.601Z,100555.34
2022-10-22T10:35:17.197Z,100558.50
2022-10-22T10:38:48.621Z,100563.56
2022-10-22T10:42:22.575Z,100550.06
2022-10-22T10:45:55.590Z,100548.81
2022-10-22T10:49:16.607Z,100552.69
2022-10-22T10:52:42.640Z,100559.50
2022-10-22T10:56:01.290Z,100571.19
2022-10-22T10:59:29.663Z,100570.47
2022-10-22T11:06:09.659Z,100580.09
2022-10-22T11:09:37.664Z,100572.22
2022-10-22T11:12:50.659Z,100581.03
2022-10-22T11:16:25.720Z,100577.47
2022-10-22T11:19:53.003Z,100565.50
2022-10-22T11:23:18.738Z,100555.03
2022-10-22T11:26:45.656Z,100552.31
2022-10-22T11:29:56.065Z,100559.78
2022-10-22T11:33:16.606Z,100550.53
2022-10-22T11:36:22.477Z,100533.59
2022-10-22T11:39:51.607Z,100529.66
2022-10-22T11:43:05.685Z,100536.38
2022-10-22T11:46:44.631Z,100535.06
2022-10-22T11:49:58.936Z,100528.56
2022-10-22T11:53:32.641Z,100515.34
2022-10-22T11:56:47.695Z,100520.12
2022-10-22T11:59:54.275Z,100513.66
2022-10-22T12:03:21.635Z,100520.16
2022-10-22T12:06:25.506Z,100518.75
2022-10-22T12:09:46.666Z,100510.72
2022-10-22T12:13:12.597Z,100519.59
2022-10-22T12:16:32.091Z,100512.97
2022-10-22T12:20:05.672Z,100510.22
2022-10-22T12:23:20.619Z,100509.62
2022-10-22T12:26:26.145Z,100505.63
2022-10-22T12:29:40.760Z,100496.22
2022-10-22T12:32:59.623Z,100499.13
2022-10-22T12:36:01.432Z,100488.22
2022-10-22T12:39:23.651Z,100498.03
2022-10-22T12:42:25.492Z,100497.66
2022-10-22T12:45:41.715Z,100491.88
2022-10-22T12:48:56.688Z,100494.28
2022-10-22T12:52:02.863Z,100498.03
2022-10-22T12:55:23.680Z,100513.94
2022-10-22T12:58:41.197Z,100508.91
2022-10-22T13:01:50.663Z,100500.75
2022-10-22T13:05:16.351Z,100504.31
2022-10-22T13:08:29.725Z,100509.56
2022-10-22T13:11:42.667Z,100506.56
2022-10-22T13:15:26.664Z,100511.63
2022-10-22T13:18:41.702Z,100503.84
2022-10-22T13:21:48.766Z,100507.41
2022-10-22T13:25:24.679Z,100501.87
2022-10-22T13:28:27.347Z,100504.59
2022-10-22T13:31:41.860Z,100515.53
2022-10-22T13:34:56.723Z,100508.91
2022-10-22T13:37:59.655Z,100497.09
2022-10-22T13:41:29.691Z,100501.59
2022-10-22T13:44:31.441Z,100494.94
2022-10-22T13:47:46.680Z,100513.72
2022-10-22T13:50:50.056Z,100519.34
2022-10-22T13:54:04.699Z,100519.00
2022-10-22T13:57:13.292Z,100504.41
2022-10-22T14:00:24.749Z,100510.03
2022-10-22T14:03:35.607Z,100517.69
2022-10-22T14:06:43.704Z,100512.94
2022-10-22T14:09:58.693Z,100520.03
2022-10-22T14:13:14.687Z,100520.50
2022-10-22T14:16:32.719Z,100524.44
2022-10-22T14:19:40.729Z,100512.72
2022-10-22T14:22:51.236Z,100533.13
2022-10-22T14:26:00.784Z,100526.66
2022-10-22T14:29:10.570Z,100523.22
2022-10-22T14:32:21.767Z,100516.38
2022-10-22T14:35:36.736Z,100524.53
2022-10-22T14:38:38.542Z,100510.31
2022-10-22T14:41:53.731Z,100512.00
2022-10-22T14:45:02.756Z,100508.25
2022-10-22T14:51:24.458Z,100495.94
2022-10-22T14:54:38.743Z,100526.31
2022-10-22T14:57:47.732Z,100522.97
2022-10-22T15:00:58.492Z,100519.75
2022-10-22T15:04:06.802Z,100529.97
2022-10-22T15:07:18.291Z,100528.09
2022-10-22T15:10:27.745Z,100530.78
2022-10-22T15:13:43.021Z,100528.47
2022-10-22T15:16:51.788Z,100526.03
2022-10-22T15:20:00.676Z,100523.50
2022-10-22T15:23:15.763Z,100531.31
2022-10-22T15:26:17.901Z,100521.03
2022-10-22T15:29:32.761Z,100521.19
2022-10-22T15:32:35.583Z,100536.34
2022-10-22T15:35:50.841Z,100532.31
2022-10-22T15:38:52.938Z,100535.59
2022-10-22T15:42:08.767Z,100530.53
2022-10-22T15:45:17.759Z,100530.22
2022-10-22T15:48:32.810Z,100536.41
2022-10-22T15:51:34.795Z,100540.47
2022-10-22T15:54:50.754Z,100546.28
2022-10-22T15:58:03.366Z,100557.88
2022-10-22T16:01:14.299Z,100560.69
2022-10-22T16:04:28.809Z,100569.97
2022-10-22T16:07:37.902Z,100581.19
2022-10-22T16:10:47.044Z,100593.22
2022-10-22T16:14:02.798Z,100544.03
2022-10-22T16:17:11.378Z,100594.69
2022-10-22T16:20:25.759Z,100599.78
2022-10-22T16:23:27.779Z,100602.03
2022-10-22T16:26:42.807Z,100611.66
2022-10-22T16:29:58.816Z,100619.87
2022-10-22T16:33:03.420Z,100633.78
2022-10-22T16:36:21.812Z,100635.84
2022-10-22T16:39:24.287Z,100645.47
2022-10-22T16:42:38.793Z,100650.37
2022-10-22T16:45:50.079Z,100654.59
2022-10-22T16:49:04.791Z,100660.19
2022-10-22T16:52:19.751Z,100666.44
2022-10-22T16:55:35.812Z,100667.94
2022-10-22T16:58:55.793Z,100671.00
2022-10-22T17:05:18.685Z,100681.44
2022-10-22T17:08:27.884Z,100682.47
2022-10-22T17:11:44.935Z,100684.69
2022-10-22T17:14:54.084Z,100682.81
2022-10-22T17:18:08.783Z,100685.19
2022-10-22T17:21:14.067Z,100677.75
2022-10-22T17:24:28.822Z,100673.00
2022-10-22T17:27:38.968Z,100664.72
2022-10-22T17:30:48.061Z,100667.13
2022-10-22T17:34:03.844Z,100668.97
2022-10-22T17:37:12.595Z,100686.88
2022-10-22T17:40:21.899Z,100691.94
2022-10-22T17:43:33.161Z,100683.16
2022-10-22T17:46:48.849Z,100692.47
2022-10-22T17:49:57.651Z,100692.09
2022-10-22T17:53:06.852Z,100705.13
2022-10-22T17:56:20.355Z,100717.63
2022-10-22T17:59:28.840Z,100703.91
2022-10-22T18:02:45.013Z,100705.09
2022-10-22T18:05:47.209Z,100699.34
2022-10-22T18:09:05.858Z,100710.50
2022-10-22T18:12:08.207Z,100726.50
2022-10-22T18:15:29.858Z,100728.53
2022-10-22T18:18:32.239Z,100728.03
2022-10-22T18:21:47.866Z,100740.19
2022-10-22T18:24:56.931Z,100735.47
2022-10-22T18:28:08.855Z,100715.19
2022-10-22T18:31:27.876Z,100731.41
2022-10-22T18:34:34.042Z,100737.16
2022-10-22T18:37:48.943Z,100754.19
2022-10-22T18:40:58.594Z,100761.44
2022-10-22T18:44:10.859Z,100749.28
2022-10-22T18:47:26.926Z,100755.19
2022-10-22T18:50:29.111Z,100771.00
2022-10-22T18:53:58.899Z,100761.00
2022-10-22T18:57:06.609Z,100761.34
2022-10-22T19:00:21.876Z,100768.56
2022-10-22T19:03:30.842Z,100756.41
2022-10-22T19:06:43.115Z,100746.75
2022-10-22T19:09:53.868Z,100763.97
2022-10-22T19:13:15.903Z,100773.41
2022-10-22T19:16:21.004Z,100769.00
2022-10-22T19:19:37.884Z,100768.34
2022-10-22T19:22:46.856Z,100762.03
2022-10-22T19:26:07.022Z,100769.47
2022-10-22T19:29:15.849Z,100764.69
2022-10-22T19:32:27.520Z,100776.13
2022-10-22T19:35:38.892Z,100773.38
2022-10-22T19:38:48.891Z,100769.97
2022-10-22T19:41:57.879Z,100784.28
2022-10-22T19:45:08.515Z,100794.22
2022-10-22T19:48:16.989Z,100801.59
2022-10-22T19:51:28.567Z,100809.56
2022-10-22T19:54:36.919Z,100809.50
2022-10-22T19:57:51.920Z,100806.41
2022-10-22T20:01:11.910Z,100819.91
2022-10-22T20:04:16.428Z,100820.28
2022-10-22T20:07:30.992Z,100821.22
2022-10-22T20:10:39.919Z,100833.00
2022-10-22T20:13:55.704Z,100838.31
2022-10-22T20:17:03.914Z,100838.66
2022-10-22T20:20:12.898Z,100841.19
2022-10-22T20:23:21.899Z,100846.34
2022-10-22T20:26:36.926Z,100834.03
2022-10-22T20:29:39.423Z,100855.44
2022-10-22T20:32:53.947Z,100848.78
2022-10-22T20:36:06.946Z,100848.78
2022-10-22T20:39:16.308Z,100855.88
2022-10-22T20:42:24.906Z,100842.19
2022-10-22T20:45:35.815Z,100834.72
2022-10-22T20:48:44.928Z,100848.03
2022-10-22T20:51:59.993Z,100849.63
2022-10-22T20:55:02.019Z,100858.88
2022-10-22T20:58:17.012Z,100860.22
2022-10-22T21:01:25.998Z,100869.75
2022-10-22T21:04:44.034Z,100860.41
2022-10-22T21:07:53.955Z,100860.41
2022-10-22T21:11:02.597Z,100866.12
2022-10-22T21:14:13.061Z,100869.41
2022-10-22T21:17:21.456Z,100874.97
2022-10-22T21:20:29.973Z,100874.13
2022-10-22T21:23:38.900Z,100879.12
2022-10-22T21:26:48.951Z,100872.19
2022-10-22T21:30:03.933Z,100872.06
2022-10-22T21:33:05.933Z,100879.69
2022-10-22T21:36:22.957Z,100882.28
2022-10-22T21:39:25.075Z,100878.53
2022-10-22T21:42:40.984Z,100870.72
2022-10-22T21:45:43.534Z,100868.34
2022-10-22T21:49:02.027Z,100856.72
2022-10-22T21:52:10.963Z,100858.13
2022-10-22T21:55:19.431Z,100867.44
2022-10-22T21:58:27.968Z,100861.44
2022-10-22T22:01:43.024Z,100861.16
2022-10-22T22:04:50.959Z,100868.53
2022-10-22T22:08:05.946Z,100872.62
2022-10-22T22:11:16.774Z,100869.78
2022-10-22T22:14:39.016Z,100871.06
2022-10-22T22:17:47.739Z,100863.22
2022-10-22T22:20:55.975Z,100870.09
2022-10-22T22:24:05.462Z,100861.81
2022-10-22T22:30:34.931Z,100871.25
2022-10-22T22:33:50.955Z,100881.03
2022-10-22T22:37:06.960Z,100881.34
2022-10-22T22:40:09.208Z,100882.44
2022-10-22T22:43:23.979Z,100893.06
2022-10-22T22:46:32.000Z,100900.47
2022-10-22T22:49:46.966Z,100892.09
2022-10-22T22:52:48.731Z,100896.50
2022-10-22T22:56:14.955Z,100896.19
2022-10-22T22:59:17.128Z,100898.41
2022-10-22T23:02:31.989Z,100911.44
2022-10-22T23:05:36.965Z,100915.69
2022-10-22T23:08:58.277Z,100923.91
2022-10-22T23:12:07.023Z,100919.06
2022-10-22T23:15:22.277Z,100923.56
2022-10-22T23:18:31.032Z,100915.47
2022-10-22T23:21:47.959Z,100917.72
2022-10-22T23:24:55.995Z,100919.25
2022-10-22T23:28:04.765Z,100916.88
2022-10-22T23:31:13.031Z,100916.62
2022-10-22T23:34:31.038Z,100922.47
2022-10-22T23:37:39.199Z,100919.84
2022-10-22T23:40:54.313Z,100928.19
2022-10-22T23:44:10.033Z,100924.09
2022-10-22T23:47:12.847Z,100928.94
2022-10-22T23:50:28.059Z,100920.88
2022-10-22T23:53:30.078Z,100919.41
2022-10-22T23:56:45.035Z,100931.66
2022-10-22T23:59:46.878Z,100928.50
